Time;durP1;ratioP1;P1;durP2;ratioP2;P2;SDS_P1;SDS_P2;PMS_P1;PMS_P2;Temp;Humidity;BMP_temperature;BMP_pressure;BME280_temperature;BME280_humidity;BME280_pressure;Samples;Min_cycle;Max_cycle;Signal;HPM_P1;HPM_P2
2023/03/20 00:02:26;;;;;;;151.82;35.92;;;;;;;;;;4918650;29;20063;-61
2023/03/20 00:04:52;;;;;;;158.40;38.70;;;;;;;;;;4921094;29;20037;-61
2023/03/20 00:07:19;;;;;;;141.52;45.03;;;;;;;;;;4920765;29;20060;-61
2023/03/20 00:09:46;;;;;;;156.85;48.90;;;;;;;;;;4921374;29;20066;-61
2023/03/20 00:12:14;;;;;;;150.68;47.17;;;;;;;;;;4923926;29;20107;-61
2023/03/20 00:14:41;;;;;;;167.30;45.60;;;;;;;;;;4918852;29;20044;-61
2023/03/20 00:17:09;;;;;;;143.70;44.03;;;;;;;;;;4923033;29;20508;-61
2023/03/20 00:19:36;;;;;;;195.77;47.85;;;;;;;;;;4921298;29;20441;-61
2023/03/20 00:22:03;;;;;;;144.73;41.20;;;;;;;;;;4922720;29;20108;-61
2023/03/20 00:24:29;;;;;;;427.10;61.83;;;;;;;;;;4923224;29;20620;-60
2023/03/20 00:26:56;;;;;;;147.82;43.85;;;;;;;;;;4918453;29;20545;-60
2023/03/20 00:29:27;;;;;;;130.48;42.47;;;;;;;;;;4919185;29;20052;-61
2023/03/20 00:31:54;;;;;;;110.35;36.72;;;;;;;;;;4919145;29;20501;-61
2023/03/20 00:34:22;;;;;;;161.77;39.58;;;;;;;;;;4921676;29;20048;-61
2023/03/20 00:36:49;;;;;;;120.70;36.58;;;;;;;;;;4918417;29;20051;-61
2023/03/20 00:39:15;;;;;;;153.20;35.53;;;;;;;;;;4920512;29;20039;-61
2023/03/20 00:41:48;;;;;;;197.27;40.35;;;;;;;;;;4918978;29;20097;-61
2023/03/20 00:44:20;;;;;;;140.27;38.25;;;;;;;;;;4919601;29;20056;-60
2023/03/20 00:46:49;;;;;;;116.10;35.38;;;;;;;;;;4920487;29;20047;-60
2023/03/20 00:49:15;;;;;;;224.10;42.47;;;;;;;;;;4914466;29;20040;-60
2023/03/20 00:51:43;;;;;;;152.95;38.38;;;;;;;;;;4919051;29;20044;-60
2023/03/20 00:54:14;;;;;;;121.40;35.35;;;;;;;;;;4921558;29;20051;-60
2023/03/20 00:56:48;;;;;;;140.82;36.83;;;;;;;;;;4925976;29;20048;-60
2023/03/20 00:59:16;;;;;;;154.85;37.17;;;;;;;;;;4935526;29;20135;-61
2023/03/20 01:01:43;;;;;;;165.32;41.33;;;;;;;;;;4918523;29;20056;-61
2023/03/20 01:04:16;;;;;;;138.88;37.00;;;;;;;;;;4920922;29;20048;-61
2023/03/20 01:06:43;;;;;;;122.00;35.95;;;;;;;;;;4921400;29;20131;-61
2023/03/20 01:09:10;;;;;;;176.00;39.20;;;;;;;;;;4918645;29;20517;-60
2023/03/20 01:11:37;;;;;;;143.65;34.90;;;;;;;;;;4924988;29;20207;-61
2023/03/20 01:14:04;;;;;;;117.93;33.35;;;;;;;;;;4918119;29;20466;-61
2023/03/20 01:16:31;;;;;;;133.30;34.25;;;;;;;;;;4914645;29;20060;-61
2023/03/20 01:18:58;;;;;;;135.93;34.55;;;;;;;;;;4920422;29;20036;-63
2023/03/20 01:21:25;;;;;;;170.75;51.20;;;;;;;;;;4921559;29;20557;-63
2023/03/20 01:23:51;;;;;;;162.52;40.15;;;;;;;;;;4921339;29;20056;-63
2023/03/20 01:26:18;;;;;;;106.95;34.15;;;;;;;;;;4920359;29;20048;-63
2023/03/20 01:28:44;;;;;;;126.82;33.95;;;;;;;;;;4938841;29;20502;-63
2023/03/20 01:31:11;;;;;;;135.60;34.08;;;;;;;;;;4923629;29;20055;-63
2023/03/20 01:33:38;;;;;;;168.50;37.88;;;;;;;;;;4925174;29;20123;-63
2023/03/20 01:36:05;;;;;;;144.75;35.20;;;;;;;;;;4922341;29;20134;-63
2023/03/20 01:38:31;;;;;;;146.80;36.72;;;;;;;;;;4924741;29;20106;-63
2023/03/20 01:41:04;;;;;;;115.60;35.90;;;;;;;;;;4938672;29;20059;-63
2023/03/20 01:43:32;;;;;;;133.13;37.17;;;;;;;;;;4931679;29;20070;-64
2023/03/20 01:46:12;;;;;;;136.68;34.60;;;;;;;;;;4923792;29;20040;-63
2023/03/20 01:48:48;;;;;;;132.48;33.20;;;;;;;;;;4919479;29;20048;-63
2023/03/20 01:51:16;;;;;;;157.93;35.50;;;;;;;;;;4922617;29;20056;-63
2023/03/20 01:53:44;;;;;;;142.00;35.70;;;;;;;;;;4924632;29;20489;-63
2023/03/20 01:56:13;;;;;;;149.15;35.50;;;;;;;;;;4920940;29;20044;-63
2023/03/20 01:59:08;;;;;;;128.55;36.22;;;;;;;;;;4928430;29;20044;-63
2023/03/20 02:01:36;;;;;;;176.90;38.55;;;;;;;;;;4924831;29;20505;-63
2023/03/20 02:04:02;;;;;;;140.45;37.47;;;;;;;;;;4924035;29;20058;-63
2023/03/20 02:06:43;;;;;;;142.05;40.05;;;;;;;;;;4922417;29;20138;-63
2023/03/20 02:09:22;;;;;;;126.28;37.60;;;;;;;;;;4924929;29;20063;-62
2023/03/20 02:11:49;;;;;;;148.20;39.50;;;;;;;;;;4929678;29;20912;-63
2023/03/20 02:14:18;;;;;;;147.55;39.17;;;;;;;;;;4922142;29;20047;-63
2023/03/20 02:16:53;;;;;;;135.07;40.15;;;;;;;;;;4925208;29;20047;-63
2023/03/20 02:19:56;;;;;;;200.40;41.45;;;;;;;;;;4918987;29;20142;-58
2023/03/20 02:22:41;;;;;;;139.27;39.78;;;;;;;;;;4917710;29;20054;-63
2023/03/20 02:25:26;;;;;;;141.43;38.15;;;;;;;;;;4926691;29;20564;-62
2023/03/20 02:27:59;;;;;;;154.68;38.72;;;;;;;;;;4916848;29;20048;-61
2023/03/20 02:30:44;;;;;;;125.82;36.45;;;;;;;;;;4931312;29;20051;-61
2023/03/20 02:33:30;;;;;;;144.90;37.47;;;;;;;;;;4931424;29;20058;-61
2023/03/20 02:36:14;;;;;;;141.93;36.05;;;;;;;;;;4921567;29;20454;-61
2023/03/20 02:38:40;;;;;;;156.65;36.88;;;;;;;;;;4919446;29;20060;-61
2023/03/20 02:41:13;;;;;;;141.48;35.72;;;;;;;;;;4925389;29;20127;-60
2023/03/20 02:43:42;;;;;;;156.57;34.97;;;;;;;;;;4928094;29;20065;-60
2023/03/20 02:46:28;;;;;;;125.25;33.15;;;;;;;;;;4922275;29;20431;-60
2023/03/20 02:49:02;;;;;;;115.43;31.17;;;;;;;;;;4933622;29;20071;-61
2023/03/20 02:51:48;;;;;;;114.82;32.70;;;;;;;;;;4926924;29;20088;-60
2023/03/20 02:54:34;;;;;;;141.18;33.00;;;;;;;;;;4922058;29;20060;-61
2023/03/20 02:57:22;;;;;;;104.55;29.77;;;;;;;;;;4911796;29;20039;-61
2023/03/20 02:59:48;;;;;;;107.45;31.75;;;;;;;;;;4936282;29;20107;-61
2023/03/20 03:02:17;;;;;;;120.20;33.88;;;;;;;;;;4937722;28;20039;-61
2023/03/20 03:04:48;;;;;;;130.90;32.92;;;;;;;;;;4922869;29;20054;-61
2023/03/20 03:07:18;;;;;;;117.53;32.83;;;;;;;;;;4920844;29;20465;-61
2023/03/20 03:09:47;;;;;;;140.35;33.67;;;;;;;;;;4920615;29;20493;-61
2023/03/20 03:12:16;;;;;;;147.50;33.92;;;;;;;;;;4935322;29;20103;-61
2023/03/20 03:14:49;;;;;;;106.25;31.40;;;;;;;;;;4924922;29;20104;-61
2023/03/20 03:17:17;;;;;;;125.57;33.67;;;;;;;;;;4919779;29;20051;-60
2023/03/20 03:19:48;;;;;;;172.05;37.45;;;;;;;;;;4921489;29;20048;-61
2023/03/20 03:22:16;;;;;;;117.72;34.33;;;;;;;;;;4915754;29;20477;-61
2023/03/20 03:24:44;;;;;;;157.77;37.58;;;;;;;;;;4925302;29;20146;-61
2023/03/20 03:27:21;;;;;;;133.52;35.33;;;;;;;;;;4921832;29;20051;-61
2023/03/20 03:29:52;;;;;;;125.75;34.20;;;;;;;;;;4919022;29;20048;-61
2023/03/20 03:32:26;;;;;;;131.00;35.35;;;;;;;;;;4917447;29;20477;-61
2023/03/20 03:34:52;;;;;;;;;;;;;;;;;;4920248;29;20059;-61
2023/03/20 03:37:25;;;;;;;130.80;34.33;;;;;;;;;;4923651;29;20373;-62
2023/03/20 03:40:04;;;;;;;159.15;37.60;;;;;;;;;;4922234;29;20048;-61
2023/03/20 03:42:40;;;;;;;157.18;38.03;;;;;;;;;;4923274;29;20429;-61
2023/03/20 03:45:13;;;;;;;121.50;35.25;;;;;;;;;;4920916;29;20064;-61
2023/03/20 03:47:40;;;;;;;153.23;36.45;;;;;;;;;;4933326;29;20053;-61
2023/03/20 03:50:28;;;;;;;179.57;40.33;;;;;;;;;;4918442;29;20052;-61
2023/03/20 03:52:59;;;;;;;119.18;36.40;;;;;;;;;;4921427;29;20587;-61
2023/03/20 03:55:31;;;;;;;184.38;40.13;;;;;;;;;;4919867;29;20453;-61
2023/03/20 03:58:12;;;;;;;134.40;36.38;;;;;;;;;;4921003;29;20064;-61
2023/03/20 04:00:40;;;;;;;210.70;40.92;;;;;;;;;;4916528;29;20080;-61
2023/03/20 04:03:08;;;;;;;157.20;37.63;;;;;;;;;;4925139;29;20122;-61
2023/03/20 04:05:36;;;;;;;165.15;34.72;;;;;;;;;;4919087;29;20070;-61
2023/03/20 04:08:04;;;;;;;153.95;36.78;;;;;;;;;;4920851;29;20131;-61
2023/03/20 04:10:31;;;;;;;181.45;36.92;;;;;;;;;;4919819;29;20052;-61
2023/03/20 04:12:59;;;;;;;134.73;36.33;;;;;;;;;;4926491;29;20066;-61
2023/03/20 04:15:26;;;;;;;169.30;37.20;;;;;;;;;;4921366;29;20106;-61
2023/03/20 04:17:54;;;;;;;159.80;36.63;;;;;;;;;;4918506;29;20123;-61
2023/03/20 04:20:21;;;;;;;122.03;32.55;;;;;;;;;;4921473;29;20067;-61
2023/03/20 04:22:48;;;;;;;146.02;33.85;;;;;;;;;;4919435;29;20067;-61
2023/03/20 04:25:17;;;;;;;184.43;38.85;;;;;;;;;;4922827;29;20525;-60
2023/03/20 04:27:44;;;;;;;142.52;34.58;;;;;;;;;;4903869;29;23616;-61
2023/03/20 04:30:22;;;;;;;144.25;35.88;;;;;;;;;;4916256;29;20051;-61
2023/03/20 04:33:07;;;;;;;171.10;36.55;;;;;;;;;;4921218;29;20055;-61
2023/03/20 04:35:42;;;;;;;152.80;39.28;;;;;;;;;;4919137;29;20512;-61
2023/03/20 04:38:12;;;;;;;145.05;34.92;;;;;;;;;;4918166;29;20084;-61
2023/03/20 04:40:38;;;;;;;143.73;34.92;;;;;;;;;;4921899;29;20036;-61
2023/03/20 04:43:06;;;;;;;161.60;37.20;;;;;;;;;;4935037;29;20103;-62
2023/03/20 04:45:33;;;;;;;214.38;39.95;;;;;;;;;;4920425;29;20040;-61
2023/03/20 04:48:00;;;;;;;156.93;36.72;;;;;;;;;;4923560;29;20258;-61
2023/03/20 04:50:28;;;;;;;111.25;34.22;;;;;;;;;;4920342;29;20628;-61
2023/03/20 04:52:54;;;;;;;140.23;35.28;;;;;;;;;;4922983;29;20047;-61
2023/03/20 04:55:21;;;;;;;147.90;35.97;;;;;;;;;;4927005;29;20168;-61
2023/03/20 04:57:48;;;;;;;168.32;35.35;;;;;;;;;;4935647;29;20050;-61
2023/03/20 05:00:15;;;;;;;117.32;32.83;;;;;;;;;;4919342;29;20040;-61
2023/03/20 05:02:43;;;;;;;154.80;35.72;;;;;;;;;;4919729;29;20601;-61
2023/03/20 05:05:09;;;;;;;143.30;36.00;;;;;;;;;;4919776;29;20040;-61
2023/03/20 05:07:36;;;;;;;142.00;33.50;;;;;;;;;;4919580;29;20039;-61
2023/03/20 05:10:06;;;;;;;210.65;40.20;;;;;;;;;;4919497;29;20086;-62
2023/03/20 05:12:42;;;;;;;151.02;35.67;;;;;;;;;;4912768;29;20139;-62
2023/03/20 05:15:23;;;;;;;169.73;38.03;;;;;;;;;;4907640;29;20052;-62
2023/03/20 05:18:08;;;;;;;119.10;32.30;;;;;;;;;;4920155;29;20075;-62
2023/03/20 05:20:51;;;;;;;132.90;36.65;;;;;;;;;;4919315;29;20509;-62
2023/03/20 05:23:38;;;;;;;171.25;40.20;;;;;;;;;;4833967;29;20126;-62
2023/03/20 05:26:24;;;;;;;127.40;42.58;;;;;;;;;;4816145;29;20059;-63
2023/03/20 05:29:11;;;;;;;198.45;63.92;;;;;;;;;;4804089;29;20530;-62
2023/03/20 05:31:41;;;;;;;189.20;61.13;;;;;;;;;;4802597;29;20059;-62
2023/03/20 05:34:16;;;;;;;188.77;44.72;;;;;;;;;;4807459;29;20058;-63
2023/03/20 05:37:02;;;;;;;139.23;41.55;;;;;;;;;;4777757;29;20189;-67
2023/03/20 05:39:54;;;;;;;171.00;44.08;;;;;;;;;;4777143;29;20050;-66
2023/03/20 05:42:32;;;;;;;196.00;44.70;;;;;;;;;;4807163;29;20101;-66
2023/03/20 05:45:28;;;;;;;125.45;40.30;;;;;;;;;;4798092;29;20479;-65
2023/03/20 05:48:17;;;;;;;160.75;39.70;;;;;;;;;;4803712;29;20062;-63
2023/03/20 05:51:02;;;;;;;160.68;41.10;;;;;;;;;;4811494;29;20069;-65
2023/03/20 05:53:36;;;;;;;161.25;40.28;;;;;;;;;;4792710;29;20065;-65
2023/03/20 05:56:31;;;;;;;152.05;39.92;;;;;;;;;;4802362;29;20432;-65
2023/03/20 05:59:22;;;;;;;185.40;37.55;;;;;;;;;;4789806;29;20520;-65
2023/03/20 06:02:07;;;;;;;125.57;35.33;;;;;;;;;;4885088;29;20051;-65
2023/03/20 06:04:36;;;;;;;333.77;45.97;;;;;;;;;;4888270;29;20076;-66
2023/03/20 06:07:19;;;;;;;108.15;33.22;;;;;;;;;;4912470;29;20119;-65
2023/03/20 06:09:54;;;;;;;141.32;35.35;;;;;;;;;;4917671;29;20099;-65
2023/03/20 06:12:21;;;;;;;143.85;35.65;;;;;;;;;;4915309;29;20067;-53
2023/03/20 06:14:48;;;;;;;149.90;36.67;;;;;;;;;;4923634;29;20050;-53
2023/03/20 06:17:14;;;;;;;153.25;38.08;;;;;;;;;;4916375;29;20581;-53
2023/03/20 06:19:46;;;;;;;170.25;37.60;;;;;;;;;;4923723;29;20047;-52
2023/03/20 06:22:13;;;;;;;133.82;34.08;;;;;;;;;;4924718;29;20039;-53
2023/03/20 06:24:39;;;;;;;206.18;40.38;;;;;;;;;;4925268;29;20524;-52
2023/03/20 06:27:07;;;;;;;150.80;36.53;;;;;;;;;;4921764;29;20501;-56
2023/03/20 06:29:34;;;;;;;131.60;35.53;;;;;;;;;;4937436;29;20052;-55
2023/03/20 06:32:16;;;;;;;106.63;31.48;;;;;;;;;;4918754;29;20040;-55
2023/03/20 06:34:44;;;;;;;128.55;33.83;;;;;;;;;;4920580;29;20406;-55
2023/03/20 06:37:10;;;;;;;156.45;35.20;;;;;;;;;;4922583;29;20509;-54
2023/03/20 06:39:37;;;;;;;154.23;34.97;;;;;;;;;;4922648;29;20493;-54
2023/03/20 06:42:08;;;;;;;134.35;32.38;;;;;;;;;;4924097;29;20398;-55
2023/03/20 06:44:36;;;;;;;135.00;34.65;;;;;;;;;;4921617;29;20107;-54
2023/03/20 06:47:23;;;;;;;86.43;33.05;;;;;;;;;;4862139;29;20053;-55
2023/03/20 06:49:50;;;;;;;101.45;32.97;;;;;;;;;;4863699;29;20392;-52
2023/03/20 06:52:23;;;;;;;119.95;34.95;;;;;;;;;;4864836;29;20506;-54
2023/03/20 06:55:10;;;;;;;148.63;34.47;;;;;;;;;;4860480;29;20151;-56
2023/03/20 06:57:37;;;;;;;169.57;37.05;;;;;;;;;;4847152;29;20077;-53
2023/03/20 07:00:04;;;;;;;120.00;33.85;;;;;;;;;;4869478;29;20056;-55
2023/03/20 07:02:31;;;;;;;116.35;32.05;;;;;;;;;;4865867;29;20111;-55
2023/03/20 07:05:01;;;;;;;109.45;33.33;;;;;;;;;;4845996;29;20136;-54
2023/03/20 07:07:27;;;;;;;119.32;34.13;;;;;;;;;;4832670;29;20049;-56
2023/03/20 07:09:54;;;;;;;197.48;39.03;;;;;;;;;;4864853;29;20099;-55
2023/03/20 07:12:21;;;;;;;101.38;31.67;;;;;;;;;;4865977;29;20062;-54
2023/03/20 07:14:48;;;;;;;94.13;31.63;;;;;;;;;;4849563;29;20041;-55
2023/03/20 07:17:17;;;;;;;140.25;34.28;;;;;;;;;;4859924;29;20073;-57
2023/03/20 07:19:44;;;;;;;169.68;35.80;;;;;;;;;;4845072;29;20049;-67
2023/03/20 07:22:19;;;;;;;84.03;30.58;;;;;;;;;;4850048;29;20105;-66
2023/03/20 07:24:46;;;;;;;125.00;32.35;;;;;;;;;;4891911;29;20056;-66
2023/03/20 07:27:13;;;;;;;103.50;32.15;;;;;;;;;;4921102;29;20048;-66
2023/03/20 07:29:40;;;;;;;98.40;33.13;;;;;;;;;;4933985;29;20054;-66
2023/03/20 07:32:11;;;;;;;172.13;37.67;;;;;;;;;;4918510;29;20048;-66
2023/03/20 07:34:46;;;;;;;95.05;32.97;;;;;;;;;;4923157;29;20509;-67
2023/03/20 07:37:13;;;;;;;141.73;35.55;;;;;;;;;;4922540;29;20056;-66
2023/03/20 07:39:45;;;;;;;205.23;38.33;;;;;;;;;;4919885;29;20056;-66
2023/03/20 07:42:41;;;;;;;139.00;35.08;;;;;;;;;;4917297;29;20209;-66
2023/03/20 07:45:12;;;;;;;370.27;46.22;;;;;;;;;;4912426;29;20561;-66
2023/03/20 07:47:47;;;;;;;407.75;47.58;;;;;;;;;;4923741;29;20469;-67
2023/03/20 07:50:14;;;;;;;163.63;35.95;;;;;;;;;;4918704;29;20208;-66
2023/03/20 07:52:45;;;;;;;159.32;36.65;;;;;;;;;;4918220;29;20059;-66
2023/03/20 07:55:11;;;;;;;152.15;35.03;;;;;;;;;;4923342;29;20055;-66
2023/03/20 07:57:37;;;;;;;172.90;35.65;;;;;;;;;;4923703;29;20044;-66
2023/03/20 08:00:04;;;;;;;87.00;30.70;;;;;;;;;;4936139;29;20659;-66
2023/03/20 08:02:37;;;;;;;108.05;32.88;;;;;;;;;;4920490;29;20103;-66
2023/03/20 08:05:04;;;;;;;112.72;32.53;;;;;;;;;;4925161;29;20408;-67
2023/03/20 08:07:31;;;;;;;112.38;32.08;;;;;;;;;;4916219;29;20472;-66
2023/03/20 08:09:57;;;;;;;106.65;32.15;;;;;;;;;;4923080;29;20044;-67
2023/03/20 08:12:24;;;;;;;110.43;32.22;;;;;;;;;;4918541;29;20055;-67
2023/03/20 08:14:51;;;;;;;116.60;31.45;;;;;;;;;;4921237;29;20048;-67
2023/03/20 08:17:17;;;;;;;142.95;33.10;;;;;;;;;;4923525;29;20785;-67
2023/03/20 08:19:47;;;;;;;134.65;33.20;;;;;;;;;;4922649;29;20040;-66
2023/03/20 08:22:15;;;;;;;103.07;31.55;;;;;;;;;;4914124;29;20107;-57
2023/03/20 08:24:42;;;;;;;131.13;32.92;;;;;;;;;;4923274;29;20051;-54
2023/03/20 08:27:09;;;;;;;100.43;29.25;;;;;;;;;;4922429;29;20042;-54
2023/03/20 08:29:35;;;;;;;109.93;29.83;;;;;;;;;;4921294;29;20044;-56
2023/03/20 08:32:02;;;;;;;97.03;28.83;;;;;;;;;;4922677;29;20042;-52
2023/03/20 08:34:30;;;;;;;134.55;31.10;;;;;;;;;;4921843;29;20040;-53
2023/03/20 08:36:56;;;;;;;89.28;29.70;;;;;;;;;;4918725;29;20060;-54
2023/03/20 08:39:23;;;;;;;121.18;31.67;;;;;;;;;;4921424;29;20075;-51
2023/03/20 08:41:49;;;;;;;115.28;31.55;;;;;;;;;;4924048;29;20055;-54
2023/03/20 08:44:16;;;;;;;98.20;30.35;;;;;;;;;;4922043;29;20504;-55
2023/03/20 08:46:43;;;;;;;125.47;30.88;;;;;;;;;;4919289;29;20038;-55
2023/03/20 08:49:10;;;;;;;139.48;29.27;;;;;;;;;;4920606;29;20040;-55
2023/03/20 08:51:36;;;;;;;137.75;30.85;;;;;;;;;;4921520;29;20063;-54
2023/03/20 08:54:03;;;;;;;102.70;27.58;;;;;;;;;;4924717;29;20421;-51
2023/03/20 08:56:29;;;;;;;122.32;31.42;;;;;;;;;;4918494;29;20043;-50
2023/03/20 08:58:55;;;;;;;112.95;29.05;;;;;;;;;;4919834;29;20417;-55
2023/03/20 09:01:22;;;;;;;174.48;29.48;;;;;;;;;;4922357;29;20040;-54
2023/03/20 09:03:49;;;;;;;116.75;27.30;;;;;;;;;;4919481;29;20114;-53
2023/03/20 09:06:15;;;;;;;78.22;22.38;;;;;;;;;;4924004;29;20091;-54
2023/03/20 09:08:42;;;;;;;124.88;26.90;;;;;;;;;;4918465;29;20115;-55
2023/03/20 09:11:08;;;;;;;171.45;31.00;;;;;;;;;;4921586;29;20054;-55
2023/03/20 09:13:35;;;;;;;126.95;25.67;;;;;;;;;;4921570;29;20497;-53
2023/03/20 09:16:02;;;;;;;96.80;23.33;;;;;;;;;;4922018;29;20054;-50
2023/03/20 09:18:29;;;;;;;115.05;24.60;;;;;;;;;;4926410;29;20540;-56
2023/03/20 09:20:55;;;;;;;80.90;23.98;;;;;;;;;;4918813;29;20072;-54
2023/03/20 09:23:22;;;;;;;114.05;23.58;;;;;;;;;;4921797;29;20048;-55
2023/03/20 09:25:48;;;;;;;95.85;23.17;;;;;;;;;;4921529;29;20047;-55
2023/03/20 09:28:15;;;;;;;165.02;25.75;;;;;;;;;;4921564;29;20043;-52
2023/03/20 09:30:42;;;;;;;133.07;25.13;;;;;;;;;;4921448;29;20044;-52
2023/03/20 09:33:09;;;;;;;282.10;30.45;;;;;;;;;;4918541;29;20036;-67
2023/03/20 09:35:36;;;;;;;223.25;29.73;;;;;;;;;;4917330;29;20052;-67
2023/03/20 09:38:02;;;;;;;84.60;22.00;;;;;;;;;;4923891;29;20040;-66
2023/03/20 09:40:47;;;;;;;90.53;21.50;;;;;;;;;;4922080;29;20043;-68
2023/03/20 09:43:23;;;;;;;95.18;21.92;;;;;;;;;;4919957;29;20052;-67
2023/03/20 09:46:10;;;;;;;107.18;22.67;;;;;;;;;;4919472;29;20768;-67
2023/03/20 09:48:44;;;;;;;209.25;26.35;;;;;;;;;;4907920;29;20060;-67
2023/03/20 09:51:20;;;;;;;99.55;21.38;;;;;;;;;;4924168;29;20802;-67
2023/03/20 09:53:48;;;;;;;89.72;21.33;;;;;;;;;;4927843;29;20123;-67
2023/03/20 09:56:23;;;;;;;91.78;20.95;;;;;;;;;;4923243;29;20373;-68
2023/03/20 09:58:53;;;;;;;63.10;20.05;;;;;;;;;;4920080;29;20050;-68
2023/03/20 10:01:22;;;;;;;122.40;23.05;;;;;;;;;;4925107;29;20073;-68
2023/03/20 10:03:50;;;;;;;144.60;23.90;;;;;;;;;;4925227;29;20052;-68
2023/03/20 10:06:17;;;;;;;85.50;19.10;;;;;;;;;;4926631;29;20043;-69
2023/03/20 10:08:44;;;;;;;81.95;20.95;;;;;;;;;;4922845;29;20489;-67
2023/03/20 10:11:33;;;;;;;115.53;22.23;;;;;;;;;;4925759;29;20047;-68
2023/03/20 10:14:05;;;;;;;119.88;23.55;;;;;;;;;;4922860;29;20039;-68
2023/03/20 10:16:39;;;;;;;80.95;20.45;;;;;;;;;;4918889;29;20576;-68
2023/03/20 10:19:06;;;;;;;128.55;23.60;;;;;;;;;;4922720;29;20098;-68
2023/03/20 10:21:43;;;;;;;122.70;23.77;;;;;;;;;;4922740;29;20405;-69
2023/03/20 10:24:18;;;;;;;76.68;21.40;;;;;;;;;;4925345;29;20103;-68
2023/03/20 10:26:45;;;;;;;91.13;22.42;;;;;;;;;;4924030;29;20130;-68
2023/03/20 10:29:15;;;;;;;103.28;22.58;;;;;;;;;;4921203;29;20036;-68
2023/03/20 10:31:44;;;;;;;119.45;22.52;;;;;;;;;;4922787;29;20575;-68
2023/03/20 10:34:14;;;;;;;120.13;24.65;;;;;;;;;;4925170;29;20063;-69
2023/03/20 10:36:41;;;;;;;107.15;21.63;;;;;;;;;;4916917;29;20127;-68
2023/03/20 10:39:08;;;;;;;128.93;24.42;;;;;;;;;;4921997;29;20036;-67
2023/03/20 10:41:37;;;;;;;117.40;24.27;;;;;;;;;;4921402;29;20044;-68
2023/03/20 10:44:04;;;;;;;236.18;29.95;;;;;;;;;;4921620;29;20080;-69
2023/03/20 10:46:33;;;;;;;183.23;27.40;;;;;;;;;;4918938;29;20122;-54
2023/03/20 10:49:03;;;;;;;154.20;25.25;;;;;;;;;;4924187;29;20035;-55
2023/03/20 10:51:41;;;;;;;101.43;22.63;;;;;;;;;;4925119;29;20040;-52
2023/03/20 10:54:20;;;;;;;109.22;21.58;;;;;;;;;;4921417;29;20040;-55
2023/03/20 10:56:49;;;;;;;78.38;19.70;;;;;;;;;;4921889;29;20103;-54
2023/03/20 10:59:21;;;;;;;153.05;24.73;;;;;;;;;;4925277;29;20414;-54
2023/03/20 11:01:49;;;;;;;78.25;20.15;;;;;;;;;;4923466;29;20155;-51
2023/03/20 11:04:15;;;;;;;90.25;20.70;;;;;;;;;;4923447;29;20050;-53
2023/03/20 11:06:45;;;;;;;128.77;23.08;;;;;;;;;;4922172;29;20052;-54
2023/03/20 11:09:17;;;;;;;114.65;24.70;;;;;;;;;;4922736;29;20055;-54
2023/03/20 11:11:50;;;;;;;126.67;24.03;;;;;;;;;;4921495;29;20047;-54
2023/03/20 11:14:22;;;;;;;132.70;24.60;;;;;;;;;;4925390;29;20486;-52
2023/03/20 11:16:55;;;;;;;93.10;20.95;;;;;;;;;;4921125;29;20103;-53
2023/03/20 11:19:22;;;;;;;112.20;22.45;;;;;;;;;;4931242;28;20048;-52
2023/03/20 11:21:51;;;;;;;140.25;25.55;;;;;;;;;;4922203;29;20395;-55
2023/03/20 11:24:34;;;;;;;141.38;23.65;;;;;;;;;;4928808;29;20127;-55
2023/03/20 11:27:09;;;;;;;76.55;20.45;;;;;;;;;;4924279;29;20553;-54
2023/03/20 11:29:36;;;;;;;119.28;23.98;;;;;;;;;;4920577;29;20052;-55
2023/03/20 11:32:04;;;;;;;107.55;22.50;;;;;;;;;;4921846;29;20044;-56
2023/03/20 11:34:32;;;;;;;108.10;24.70;;;;;;;;;;4924059;29;20748;-53
2023/03/20 11:37:00;;;;;;;129.55;23.60;;;;;;;;;;4921518;29;20046;-54
2023/03/20 11:39:51;;;;;;;132.27;24.95;;;;;;;;;;4918982;29;20036;-55
2023/03/20 11:42:22;;;;;;;121.50;23.55;;;;;;;;;;4922630;29;20122;-53
2023/03/20 11:44:55;;;;;;;138.43;26.75;;;;;;;;;;4919702;29;20401;-55
2023/03/20 11:47:24;;;;;;;105.20;24.77;;;;;;;;;;4923798;29;20043;-68
2023/03/20 11:49:58;;;;;;;91.55;24.13;;;;;;;;;;4921826;29;20058;-69
2023/03/20 11:52:27;;;;;;;109.15;23.88;;;;;;;;;;4916172;29;20143;-69
2023/03/20 11:54:55;;;;;;;147.60;26.77;;;;;;;;;;4922109;29;20115;-68
2023/03/20 11:57:28;;;;;;;102.07;22.33;;;;;;;;;;4928892;29;20051;-69
2023/03/20 11:59:55;;;;;;;51.03;16.92;;;;;;;;;;4925335;29;20055;-68
2023/03/20 12:02:22;;;;;;;97.95;19.77;;;;;;;;;;4919985;29;20044;-68
2023/03/20 12:04:49;;;;;;;75.45;18.00;;;;;;;;;;4920363;29;20055;-69
2023/03/20 12:07:18;;;;;;;93.82;21.23;;;;;;;;;;4923077;29;20383;-68
2023/03/20 12:09:47;;;;;;;109.35;21.15;;;;;;;;;;4923119;29;20613;-69
2023/03/20 12:12:17;;;;;;;82.65;21.48;;;;;;;;;;4923233;29;20054;-69
2023/03/20 12:15:02;;;;;;;87.50;20.95;;;;;;;;;;4919592;29;20043;-69
2023/03/20 12:17:51;;;;;;;72.97;20.85;;;;;;;;;;4918270;29;20054;-69
2023/03/20 12:20:21;;;;;;;88.75;23.42;;;;;;;;;;4909635;29;20084;-70
2023/03/20 12:23:01;;;;;;;100.65;26.08;;;;;;;;;;4924199;29;20039;-69
2023/03/20 12:25:36;;;;;;;125.75;27.02;;;;;;;;;;4922282;29;20051;-69
2023/03/20 12:28:23;;;;;;;93.30;25.88;;;;;;;;;;4919136;29;20051;-69
2023/03/20 12:30:52;;;;;;;122.70;26.52;;;;;;;;;;4920472;29;20044;-69
2023/03/20 12:33:45;;;;;;;71.80;24.00;;;;;;;;;;4920006;29;20075;-68
2023/03/20 12:36:13;;;;;;;291.10;33.22;;;;;;;;;;4864700;29;20064;-69
2023/03/20 12:38:41;;;;;;;272.00;35.00;;;;;;;;;;4860333;29;20053;-69
2023/03/20 12:41:08;;;;;;;138.48;26.75;;;;;;;;;;4861719;29;20140;-69
2023/03/20 12:43:42;;;;;;;103.05;22.63;;;;;;;;;;4863072;29;20049;-69
2023/03/20 12:46:35;;;;;;;101.28;22.05;;;;;;;;;;4860170;29;20673;-69
2023/03/20 12:49:15;;;;;;;107.72;21.85;;;;;;;;;;4858828;29;20061;-69
2023/03/20 12:51:41;;;;;;;134.27;22.08;;;;;;;;;;4860391;29;20818;-54
2023/03/20 12:54:14;;;;;;;103.40;19.95;;;;;;;;;;4862778;29;20056;-53
2023/03/20 12:56:57;;;;;;;68.10;17.90;;;;;;;;;;4863190;29;20053;-54
2023/03/20 12:59:24;;;;;;;;;;;;;;;;;;4864175;29;20065;-53
2023/03/20 13:02:16;;;;;;;104.63;19.23;;;;;;;;;;4861142;29;19955;-53
2023/03/20 13:04:52;;;;;;;94.43;17.52;;;;;;;;;;4815519;29;20486;-55
2023/03/20 13:07:19;;;;;;;90.68;17.85;;;;;;;;;;4813311;29;20078;-51
2023/03/20 13:09:56;;;;;;;135.18;20.25;;;;;;;;;;4816074;29;20066;-54
2023/03/20 13:12:36;;;;;;;55.78;15.35;;;;;;;;;;4824190;29;20156;-52
2023/03/20 13:15:31;;;;;;;101.90;18.40;;;;;;;;;;4849407;29;20057;-54
2023/03/20 13:17:58;;;;;;;74.15;16.02;;;;;;;;;;4839516;29;20069;-53
2023/03/20 13:20:27;;;;;;;86.72;18.15;;;;;;;;;;4847274;29;20475;-55
2023/03/20 13:23:08;;;;;;;102.22;17.70;;;;;;;;;;4850969;29;20495;-52
2023/03/20 13:25:52;;;;;;;167.23;20.45;;;;;;;;;;4849938;29;20118;-52
2023/03/20 13:28:29;;;;;;;102.18;18.30;;;;;;;;;;4849530;29;20098;-53
2023/03/20 13:31:14;;;;;;;90.93;17.35;;;;;;;;;;4852941;29;20046;-54
2023/03/20 13:33:52;;;;;;;166.25;21.60;;;;;;;;;;4848748;29;20053;-54
2023/03/20 13:36:26;;;;;;;79.32;17.27;;;;;;;;;;4837617;29;20196;-53
2023/03/20 13:38:56;;;;;;;79.13;18.15;;;;;;;;;;4852237;29;20065;-55
2023/03/20 13:41:23;;;;;;;85.93;18.52;;;;;;;;;;4881231;29;20425;-55
2023/03/20 13:43:53;;;;;;;91.97;17.55;;;;;;;;;;4926802;29;20573;-55
2023/03/20 13:46:24;;;;;;;129.05;20.60;;;;;;;;;;4923520;29;20107;-55
2023/03/20 13:48:52;;;;;;;159.77;21.75;;;;;;;;;;4924739;29;20051;-54
2023/03/20 13:51:28;;;;;;;76.28;14.95;;;;;;;;;;4924722;29;20119;-55
2023/03/20 13:54:13;;;;;;;84.72;15.85;;;;;;;;;;4926011;29;20557;-55
2023/03/20 13:56:50;;;;;;;69.25;14.73;;;;;;;;;;4924026;29;20044;-54
2023/03/20 13:59:25;;;;;;;102.82;17.90;;;;;;;;;;4922182;29;20050;-55
2023/03/20 14:01:54;;;;;;;147.60;21.50;;;;;;;;;;4920212;29;20099;-55
2023/03/20 14:04:22;;;;;;;352.30;31.45;;;;;;;;;;4925407;29;20043;-69
2023/03/20 14:06:49;;;;;;;110.38;18.90;;;;;;;;;;4925470;29;20044;-69
2023/03/20 14:09:23;;;;;;;66.90;17.35;;;;;;;;;;4923521;29;20732;-72
2023/03/20 14:11:51;;;;;;;82.45;17.77;;;;;;;;;;4922931;29;20040;-69
2023/03/20 14:14:22;;;;;;;87.90;17.83;;;;;;;;;;4924209;29;20056;-69
2023/03/20 14:16:58;;;;;;;93.22;18.90;;;;;;;;;;4916897;29;20067;-69
2023/03/20 14:19:25;;;;;;;86.85;18.30;;;;;;;;;;4925814;29;20052;-69
2023/03/20 14:21:55;;;;;;;75.35;16.25;;;;;;;;;;4925015;29;20524;-69
2023/03/20 14:24:22;;;;;;;87.75;18.63;;;;;;;;;;4923127;29;20032;-69
2023/03/20 14:26:51;;;;;;;79.10;19.75;;;;;;;;;;4922663;29;20051;-69
2023/03/20 14:29:19;;;;;;;107.93;20.95;;;;;;;;;;4923743;29;20410;-71
2023/03/20 14:31:50;;;;;;;94.10;21.00;;;;;;;;;;4924293;29;20127;-69
2023/03/20 14:34:23;;;;;;;76.00;19.15;;;;;;;;;;4920510;29;20050;-69
2023/03/20 14:37:00;;;;;;;141.20;23.40;;;;;;;;;;4924782;29;20503;-69